Time;durP1;ratioP1;P1;durP2;ratioP2;P2;SDS_P1;SDS_P2;PMS_P1;PMS_P2;Temp;Humidity;BMP_temperature;BMP_pressure;BME280_temperature;BME280_humidity;BME280_pressure;Samples;Min_cycle;Max_cycle;Signal;HPM_P1;HPM_P2
2021/12/03 00:02:21;;;;;;;6.20;4.50;;;;;;;4.36;100.00;95818.38;5029548;28;20522;-57
2021/12/03 00:04:48;;;;;;;9.17;5.20;;;;;;;4.31;100.00;95810.03;5011803;28;20064;-57
2021/12/03 00:07:15;;;;;;;5.20;4.07;;;;;;;4.38;100.00;95810.47;5028993;28;20388;-57
2021/12/03 00:09:42;;;;;;;6.27;4.30;;;;;;;4.31;100.00;95814.44;5011233;28;20049;-58
2021/12/03 00:12:10;;;;;;;5.27;4.37;;;;;;;4.37;100.00;95804.41;5028021;28;20098;-58
2021/12/03 00:14:42;;;;;;;5.57;3.93;;;;;;;4.35;100.00;95811.47;5029231;28;20053;-58
2021/12/03 00:17:09;;;;;;;7.33;4.30;;;;;;;4.34;100.00;95811.59;5028671;28;20115;-59
2021/12/03 00:19:36;;;;;;;5.83;4.33;;;;;;;4.31;100.00;95804.84;5027814;28;20469;-58
2021/12/03 00:22:03;;;;;;;6.13;4.57;;;;;;;4.26;100.00;95795.72;5028124;28;20534;-58
2021/12/03 00:24:30;;;;;;;7.33;5.27;;;;;;;4.25;100.00;95787.13;5011119;28;20047;-57
2021/12/03 00:26:57;;;;;;;7.40;5.57;;;;;;;4.24;100.00;95772.44;4994026;28;20146;-57
2021/12/03 00:29:24;;;;;;;8.80;5.07;;;;;;;4.06;100.00;95772.91;5009371;28;20046;-58
2021/12/03 00:31:52;;;;;;;10.03;6.87;;;;;;;4.07;100.00;95790.16;5009885;28;20056;-58
2021/12/03 00:34:19;;;;;;;11.83;7.73;;;;;;;3.99;100.00;95795.06;5009446;28;20514;-58
2021/12/03 00:36:46;;;;;;;10.47;7.57;;;;;;;3.82;100.00;95814.44;5028683;28;20045;-58
2021/12/03 00:39:13;;;;;;;9.63;6.90;;;;;;;3.98;100.00;95825.41;5028996;28;20052;-57
2021/12/03 00:41:47;;;;;;;10.17;7.00;;;;;;;4.03;100.00;95827.69;5027307;28;20064;-58
2021/12/03 00:44:14;;;;;;;10.07;5.70;;;;;;;3.98;100.00;95796.81;5028936;28;20053;-58
2021/12/03 00:46:41;;;;;;;11.93;7.50;;;;;;;4.08;100.00;95784.84;5031367;28;20170;-57
2021/12/03 00:49:10;;;;;;;10.80;7.30;;;;;;;4.03;100.00;95778.31;5032020;28;20815;-55
2021/12/03 00:51:36;;;;;;;13.43;8.83;;;;;;;3.90;100.00;95775.75;5032143;28;20058;-57
2021/12/03 00:54:03;;;;;;;14.47;9.27;;;;;;;3.94;100.00;95771.19;5031910;28;20046;-57
2021/12/03 00:56:30;;;;;;;16.87;9.63;;;;;;;3.81;100.00;95767.78;5032681;28;20103;-55
2021/12/03 00:58:57;;;;;;;13.90;9.47;;;;;;;3.85;100.00;95769.22;5031405;28;20052;-58
2021/12/03 01:01:24;;;;;;;16.20;10.20;;;;;;;3.85;100.00;95774.44;5028743;28;20049;-58
2021/12/03 01:03:51;;;;;;;15.57;9.23;;;;;;;3.79;100.00;95778.28;5031645;28;20391;-58
2021/12/03 01:06:19;;;;;;;14.70;9.37;;;;;;;3.85;100.00;95777.03;5031335;28;20057;-56
2021/12/03 01:08:46;;;;;;;14.50;9.50;;;;;;;3.83;100.00;95771.13;5014859;28;20050;-57
2021/12/03 01:11:14;;;;;;;15.47;9.90;;;;;;;3.75;100.00;95778.59;5030838;28;20049;-58
2021/12/03 01:13:43;;;;;;;19.13;9.63;;;;;;;3.75;100.00;95782.03;5030671;28;20057;-58
2021/12/03 01:16:13;;;;;;;13.97;9.00;;;;;;;3.74;100.00;95779.56;5032001;28;20049;-58
2021/12/03 01:18:41;;;;;;;11.03;8.27;;;;;;;3.76;100.00;95790.66;5032303;28;20081;-58
2021/12/03 01:21:09;;;;;;;13.90;9.17;;;;;;;3.86;100.00;95783.88;5031726;28;20453;-59
2021/12/03 01:23:37;;;;;;;14.43;9.67;;;;;;;3.75;100.00;95786.38;5031175;28;20060;-58
2021/12/03 01:26:05;;;;;;;17.00;9.93;;;;;;;3.60;100.00;95779.69;5031590;28;20050;-57
2021/12/03 01:28:32;;;;;;;28.47;13.57;;;;;;;3.62;100.00;95786.44;5030826;28;20047;-58
2021/12/03 01:31:00;;;;;;;19.23;11.07;;;;;;;3.39;100.00;95773.41;5031193;28;20050;-59
2021/12/03 01:33:27;;;;;;;24.33;14.43;;;;;;;3.60;100.00;95769.28;5030675;28;20103;-58
2021/12/03 01:35:55;;;;;;;20.53;13.17;;;;;;;3.66;100.00;95781.84;5030650;28;20053;-57
2021/12/03 01:38:22;;;;;;;21.10;12.67;;;;;;;3.71;100.00;95778.00;5031339;28;20049;-56
2021/12/03 01:40:50;;;;;;;18.40;12.17;;;;;;;3.65;100.00;95780.22;5013054;28;20132;-58
2021/12/03 01:43:22;;;;;;;17.07;11.50;;;;;;;3.54;100.00;95780.13;5031389;28;20175;-58
2021/12/03 01:45:51;;;;;;;17.73;11.43;;;;;;;3.47;100.00;95787.50;5031387;28;20135;-57
2021/12/03 01:48:18;;;;;;;23.43;11.40;;;;;;;3.47;100.00;95782.31;5030663;28;20072;-56
2021/12/03 01:50:46;;;;;;;15.60;10.53;;;;;;;3.49;100.00;95780.44;5030814;28;20070;-56
2021/12/03 01:53:15;;;;;;;18.57;11.43;;;;;;;3.27;100.00;95789.78;5013414;28;20518;-57
2021/12/03 01:55:44;;;;;;;18.27;11.77;;;;;;;3.58;100.00;95794.53;5028662;28;20137;-56
2021/12/03 01:58:13;;;;;;;20.37;11.13;;;;;;;3.56;100.00;95799.00;5031321;28;20397;-57
2021/12/03 02:00:45;;;;;;;17.97;10.57;;;;;;;3.63;100.00;95795.03;5030692;28;21560;-58
2021/12/03 02:03:15;;;;;;;16.57;10.30;;;;;;;3.54;100.00;95791.31;5031046;28;20061;-58
2021/12/03 02:05:42;;;;;;;18.30;9.73;;;;;;;3.61;100.00;95805.53;5030285;28;20128;-60
2021/12/03 02:08:09;;;;;;;18.47;10.13;;;;;;;3.61;100.00;95804.72;5030792;28;20073;-59
2021/12/03 02:10:37;;;;;;;19.87;10.00;;;;;;;3.55;100.00;95813.78;5031643;28;20073;-60
2021/12/03 02:13:05;;;;;;;15.53;10.53;;;;;;;3.45;100.00;95820.53;5030864;28;20041;-60
2021/12/03 02:15:34;;;;;;;13.07;8.67;;;;;;;3.45;100.00;95824.88;5013022;28;20053;-60
2021/12/03 02:18:01;;;;;;;14.73;8.57;;;;;;;3.41;100.00;95820.81;5031640;28;20071;-61
2021/12/03 02:20:28;;;;;;;18.53;8.87;;;;;;;3.34;100.00;95819.56;4996563;28;20057;-62
2021/12/03 02:22:57;;;;;;;14.53;7.77;;;;;;;3.35;100.00;95826.44;5031134;28;20068;-62
2021/12/03 02:25:27;;;;;;;10.50;6.47;;;;;;;3.24;100.00;95823.75;5031786;28;20084;-63
2021/12/03 02:27:58;;;;;;;10.63;5.57;;;;;;;2.97;100.00;95856.72;5012937;28;20151;-63
2021/12/03 02:30:25;;;;;;;5.80;4.47;;;;;;;2.70;100.00;95859.38;5031181;28;20056;-63
2021/12/03 02:32:54;;;;;;;6.27;4.27;;;;;;;2.55;100.00;95849.16;5030841;28;20054;-65
2021/12/03 02:35:23;;;;;;;5.53;3.20;;;;;;;2.38;100.00;95859.75;5031335;28;20120;-64
2021/12/03 02:37:51;;;;;;;9.30;4.13;;;;;;;2.27;100.00;95876.00;5012150;28;20137;-64
2021/12/03 02:40:21;;;;;;;5.93;3.77;;;;;;;2.02;100.00;95881.03;5030053;28;20057;-66
2021/12/03 02:42:49;;;;;;;6.23;3.73;;;;;;;1.68;100.00;95877.09;5031056;28;20501;-66
2021/12/03 02:45:18;;;;;;;10.03;4.73;;;;;;;1.44;100.00;95870.81;5029995;28;20529;-67
2021/12/03 02:47:45;;;;;;;8.07;3.93;;;;;;;1.07;100.00;95884.25;5029997;28;20045;-66
2021/12/03 02:50:13;;;;;;;6.23;3.33;;;;;;;0.89;100.00;95903.41;5029300;28;20132;-67
2021/12/03 02:52:40;;;;;;;6.13;3.80;;;;;;;0.80;100.00;95903.94;5029789;28;20049;-66
2021/12/03 02:55:07;;;;;;;6.40;3.30;;;;;;;0.62;100.00;95897.22;5029707;28;20048;-66
2021/12/03 02:57:35;;;;;;;7.20;4.00;;;;;;;0.51;100.00;95891.81;5029906;28;20096;-67
2021/12/03 03:00:05;;;;;;;7.60;4.13;;;;;;;0.44;100.00;95897.41;5010940;28;20041;-66
2021/12/03 03:02:32;;;;;;;6.93;3.83;;;;;;;0.38;100.00;95913.28;5027141;28;20076;-65
2021/12/03 03:04:59;;;;;;;8.77;3.97;;;;;;;0.35;100.00;95916.00;5029627;28;20042;-65
2021/12/03 03:07:25;;;;;;;5.67;3.70;;;;;;;0.27;100.00;95916.41;5029932;28;20057;-65
2021/12/03 03:09:52;;;;;;;8.67;4.40;;;;;;;0.24;100.00;95911.41;5030007;28;20397;-64
2021/12/03 03:12:19;;;;;;;9.03;3.77;;;;;;;0.20;100.00;95927.19;5029635;28;20049;-64
2021/12/03 03:14:54;;;;;;;6.03;3.17;;;;;;;0.17;100.00;95920.44;5029947;28;20084;-64
2021/12/03 03:17:23;;;;;;;4.43;3.13;;;;;;;0.17;100.00;95922.19;5030084;28;20049;-65
2021/12/03 03:19:51;;;;;;;5.60;3.23;;;;;;;0.14;100.00;95917.19;5012201;28;20046;-63
2021/12/03 03:22:19;;;;;;;4.10;2.90;;;;;;;0.07;100.00;95924.44;5029635;28;20052;-64
2021/12/03 03:24:47;;;;;;;3.13;2.47;;;;;;;0.07;100.00;95929.59;5029422;28;20060;-63
2021/12/03 03:27:15;;;;;;;4.93;2.73;;;;;;;0.01;100.00;95909.25;5029546;28;20100;-63
2021/12/03 03:29:44;;;;;;;4.87;2.20;;;;;;;-0.02;100.00;95917.16;5027721;28;20056;-63
2021/12/03 03:32:12;;;;;;;3.60;2.50;;;;;;;0.08;100.00;95910.59;5011946;28;20053;-62
2021/12/03 03:34:39;;;;;;;3.17;1.83;;;;;;;0.05;100.00;95922.84;5029087;28;20495;-62
2021/12/03 03:37:06;;;;;;;2.57;1.70;;;;;;;0.06;100.00;95914.19;5012998;28;20553;-63
2021/12/03 03:39:33;;;;;;;3.30;1.70;;;;;;;0.02;100.00;95913.50;5029868;28;20144;-63
2021/12/03 03:42:00;;;;;;;2.20;1.60;;;;;;;-0.04;100.00;95916.41;5030169;28;20041;-63
2021/12/03 03:44:28;;;;;;;2.73;2.00;;;;;;;-0.11;100.00;95920.25;5028809;28;20041;-62
2021/12/03 03:46:57;;;;;;;1.43;1.33;;;;;;;-0.07;100.00;95933.81;5028980;28;20052;-63
2021/12/03 03:49:25;;;;;;;1.80;1.40;;;;;;;-0.05;100.00;95937.16;5028817;28;20050;-62
2021/12/03 03:51:53;;;;;;;2.80;2.10;;;;;;;-0.09;100.00;95944.22;5029986;28;20050;-62
2021/12/03 03:54:20;;;;;;;2.73;1.60;;;;;;;-0.04;100.00;95941.38;5029902;28;20067;-62
2021/12/03 03:56:47;;;;;;;2.97;1.70;;;;;;;-0.02;100.00;95942.16;5029464;28;20060;-62
2021/12/03 03:59:17;;;;;;;2.03;1.30;;;;;;;-0.04;100.00;95941.38;5012345;28;20084;-62
2021/12/03 04:01:44;;;;;;;2.30;1.40;;;;;;;-0.09;100.00;95949.38;5012010;28;20038;-62
2021/12/03 04:04:11;;;;;;;1.27;1.00;;;;;;;-0.07;100.00;95946.72;5012201;28;20522;-61
2021/12/03 04:06:40;;;;;;;1.20;1.10;;;;;;;-0.13;100.00;95947.88;5028530;28;20112;-61
2021/12/03 04:09:07;;;;;;;1.73;1.30;;;;;;;-0.14;100.00;95941.03;5011063;28;20533;-61
2021/12/03 04:11:35;;;;;;;1.97;0.97;;;;;;;-0.14;100.00;95943.63;5029052;28;20471;-62
2021/12/03 04:14:02;;;;;;;4.23;0.97;;;;;;;-0.15;100.00;95941.13;5028696;28;20084;-64
2021/12/03 04:16:30;;;;;;;1.87;1.27;;;;;;;-0.18;100.00;95951.59;5029103;28;20042;-62
2021/12/03 04:18:57;;;;;;;2.33;1.00;;;;;;;-0.19;100.00;95962.84;5029270;28;20076;-62
2021/12/03 04:21:25;;;;;;;1.80;1.53;;;;;;;-0.19;100.00;95962.84;5033992;28;20506;-62
2021/12/03 04:23:54;;;;;;;1.30;1.20;;;;;;;-0.21;100.00;95960.34;5016431;28;20057;-63
2021/12/03 04:26:21;;;;;;;1.00;0.70;;;;;;;-0.19;100.00;95968.00;5033725;28;20049;-63
2021/12/03 04:28:53;;;;;;;1.40;1.20;;;;;;;-0.23;100.00;95962.19;5031213;28;20124;-63
2021/12/03 04:31:28;;;;;;;2.90;1.20;;;;;;;-0.19;100.00;95968.84;5033951;28;20076;-63
2021/12/03 04:33:56;;;;;;;1.10;0.83;;;;;;;-0.25;100.00;95974.31;5016221;28;20502;-64
2021/12/03 04:36:23;;;;;;;1.57;0.70;;;;;;;-0.25;100.00;95958.84;5015748;28;20059;-63
2021/12/03 04:38:50;;;;;;;3.37;2.07;;;;;;;-0.24;100.00;95957.91;5015445;28;20056;-62
2021/12/03 04:41:18;;;;;;;2.43;0.80;;;;;;;-0.16;100.00;95967.84;5032965;28;20073;-63
2021/12/03 04:43:45;;;;;;;0.83;0.77;;;;;;;-0.26;100.00;95956.34;5032952;28;20454;-63
2021/12/03 04:46:12;;;;;;;1.13;0.70;;;;;;;-0.22;100.00;95963.00;5033116;28;20050;-62
2021/12/03 04:48:39;;;;;;;2.03;0.77;;;;;;;-0.28;100.00;95964.16;5033003;28;20129;-62
2021/12/03 04:51:06;;;;;;;0.70;0.60;;;;;;;-0.25;100.00;95978.66;5014696;28;20049;-61
2021/12/03 04:53:33;;;;;;;2.43;0.93;;;;;;;-0.33;100.00;95991.09;5015008;28;20128;-63
2021/12/03 04:56:00;;;;;;;1.23;0.57;;;;;;;-0.21;100.00;95978.41;5015039;28;20077;-62
2021/12/03 04:58:28;;;;;;;2.33;1.00;;;;;;;-0.17;100.00;95990.25;5033388;28;20574;-62
2021/12/03 05:00:57;;;;;;;4.63;2.73;;;;;;;-0.18;100.00;95988.56;5031396;28;20052;-61
2021/12/03 05:03:25;;;;;;;0.60;0.57;;;;;;;-0.17;100.00;95977.34;5032066;28;20049;-60
2021/12/03 05:05:55;;;;;;;0.73;0.70;;;;;;;-0.18;100.00;95990.31;5012851;28;20589;-60
2021/12/03 05:08:23;;;;;;;1.37;1.23;;;;;;;-0.25;100.00;96012.22;5031351;28;20053;-61
2021/12/03 05:10:50;;;;;;;1.27;0.80;;;;;;;-0.26;100.00;96011.38;5032682;28;20064;-61
2021/12/03 05:13:19;;;;;;;1.27;1.17;;;;;;;-0.26;100.00;95993.31;5030414;28;20398;-61
2021/12/03 05:15:48;;;;;;;2.60;1.77;;;;;;;-0.32;100.00;96003.94;5032925;28;20589;-61
2021/12/03 05:18:17;;;;;;;2.23;1.00;;;;;;;-0.34;100.00;96017.81;5032810;28;20753;-60
2021/12/03 05:20:45;;;;;;;2.97;1.30;;;;;;;-0.33;100.00;96022.91;5032880;28;20049;-60
2021/12/03 05:23:13;;;;;;;1.43;1.17;;;;;;;-0.34;100.00;96030.72;5032322;28;20077;-61
2021/12/03 05:25:40;;;;;;;2.70;1.30;;;;;;;-0.34;100.00;96029.00;5032897;28;20056;-60
2021/12/03 05:28:08;;;;;;;3.00;1.90;;;;;;;-0.36;100.00;96028.22;5032544;28;20045;-61
2021/12/03 05:30:35;;;;;;;1.60;1.17;;;;;;;-0.35;100.00;96047.94;5031896;28;20045;-60
2021/12/03 05:33:04;;;;;;;3.20;1.30;;;;;;;-0.39;100.00;96049.00;5031322;28;20042;-61
2021/12/03 05:35:31;;;;;;;0.97;0.77;;;;;;;-0.34;100.00;96059.97;5031116;28;20045;-60
2021/12/03 05:37:58;;;;;;;0.83;0.70;;;;;;;-0.40;100.00;96052.50;5031393;28;20060;-62
2021/12/03 05:40:26;;;;;;;2.73;1.00;;;;;;;-0.43;100.00;96057.00;5031179;28;20046;-61
2021/12/03 05:42:53;;;;;;;1.40;1.20;;;;;;;-0.44;100.00;96045.00;5013514;28;20065;-60
2021/12/03 05:45:22;;;;;;;1.00;0.80;;;;;;;-0.46;100.00;96068.28;5030898;28;20442;-60
2021/12/03 05:47:48;;;;;;;2.30;1.57;;;;;;;-0.49;100.00;96073.63;5032155;28;20037;-60
2021/12/03 05:50:18;;;;;;;3.03;1.77;;;;;;;-0.47;100.00;96076.94;5030585;28;20076;-61
2021/12/03 05:52:46;;;;;;;1.50;0.57;;;;;;;-0.50;100.00;96089.97;5032424;28;20046;-59
2021/12/03 05:55:14;;;;;;;1.57;0.60;;;;;;;-0.57;100.00;96096.34;5030376;28;20112;-60
2021/12/03 05:57:42;;;;;;;2.50;0.90;;;;;;;-0.58;100.00;96089.53;5031922;28;20048;-60
2021/12/03 06:00:12;;;;;;;1.17;0.97;;;;;;;-0.59;100.00;96108.50;5031306;28;20042;-60
2021/12/03 06:02:40;;;;;;;2.17;0.73;;;;;;;-0.59;100.00;96117.97;5031730;28;20129;-61
2021/12/03 06:05:07;;;;;;;0.60;0.43;;;;;;;-0.62;100.00;96121.53;5031224;28;20406;-61
2021/12/03 06:07:36;;;;;;;0.50;0.50;;;;;;;-0.65;100.00;96124.25;5030652;28;20056;-61
2021/12/03 06:10:04;;;;;;;1.40;0.70;;;;;;;-0.68;100.00;96134.72;5014107;28;20125;-61
2021/12/03 06:12:31;;;;;;;3.83;1.67;;;;;;;-0.68;100.00;96141.63;5030841;28;20096;-61
2021/12/03 06:14:58;;;;;;;2.07;0.83;;;;;;;-0.62;100.00;96147.31;5031453;28;20045;-61
2021/12/03 06:17:25;;;;;;;0.73;0.60;;;;;;;-0.67;100.00;96157.03;5029848;28;20049;-60
2021/12/03 06:19:51;;;;;;;2.10;0.90;;;;;;;-0.70;100.00;96154.59;5030565;28;20133;-60
2021/12/03 06:22:18;;;;;;;3.67;0.90;;;;;;;-0.67;100.00;96172.50;5030280;28;20041;-60
2021/12/03 06:24:47;;;;;;;3.87;1.37;;;;;;;-0.63;100.00;96170.59;5030682;28;20132;-60
2021/12/03 06:27:13;;;;;;;3.63;1.47;;;;;;;-0.69;100.00;96178.66;5030304;28;20045;-61
2021/12/03 06:29:40;;;;;;;2.20;1.20;;;;;;;-0.64;100.00;96187.00;5028623;28;20069;-61
2021/12/03 06:32:09;;;;;;;4.37;1.47;;;;;;;-0.67;100.00;96189.72;5029920;28;20045;-59
2021/12/03 06:34:36;;;;;;;4.03;2.03;;;;;;;-0.68;100.00;96188.03;5029854;28;20840;-59
2021/12/03 06:37:03;;;;;;;4.70;2.20;;;;;;;-0.64;100.00;96197.31;5029705;28;20046;-63
2021/12/03 06:39:29;;;;;;;5.80;3.50;;;;;;;-0.64;100.00;96203.31;5030553;28;20049;-59
2021/12/03 06:41:57;;;;;;;6.13;2.53;;;;;;;-0.68;100.00;96212.06;5030646;28;20470;-61
2021/12/03 06:44:25;;;;;;;8.63;2.13;;;;;;;-0.66;100.00;96215.44;5031062;28;20881;-61
2021/12/03 06:46:53;;;;;;;5.93;2.40;;;;;;;-0.67;100.00;96212.91;5030857;28;20499;-61
2021/12/03 06:49:20;;;;;;;4.90;2.10;;;;;;;-0.66;100.00;96223.16;5013039;28;20137;-61
2021/12/03 06:51:48;;;;;;;3.67;2.37;;;;;;;-0.66;100.00;96220.59;5029559;28;20041;-60
2021/12/03 06:54:24;;;;;;;3.70;2.50;;;;;;;-0.63;100.00;96228.19;5031584;28;20107;-61
2021/12/03 06:56:52;;;;;;;4.10;1.70;;;;;;;-0.59;100.00;96236.59;5031278;28;20045;-61
2021/12/03 06:59:22;;;;;;;5.23;2.10;;;;;;;-0.60;100.00;96232.38;5029707;28;20711;-60
2021/12/03 07:01:49;;;;;;;4.77;1.97;;;;;;;-0.50;100.00;96238.78;5028033;28;20057;-60
2021/12/03 07:04:17;;;;;;;6.27;2.30;;;;;;;-0.58;100.00;96249.44;5029946;28;20057;-58
2021/12/03 07:06:43;;;;;;;3.60;1.63;;;;;;;-0.59;100.00;96252.94;5031902;28;22129;-58
2021/12/03 07:09:11;;;;;;;5.60;2.90;;;;;;;-0.57;100.00;96261.41;5029896;28;20052;-57
2021/12/03 07:11:38;;;;;;;7.80;4.10;;;;;;;-0.61;100.00;96259.88;5029325;28;20418;-57
2021/12/03 07:14:06;;;;;;;10.40;5.90;;;;;;;-0.64;100.00;96264.38;5028472;28;20072;-57
2021/12/03 07:16:34;;;;;;;5.27;3.80;;;;;;;-0.71;100.00;96276.72;5029099;28;20132;-60
2021/12/03 07:19:01;;;;;;;12.03;4.40;;;;;;;-0.66;100.00;96287.63;5030624;28;20143;-59
2021/12/03 07:21:28;;;;;;;8.80;3.67;;;;;;;-0.69;100.00;96287.78;5031416;28;20499;-59
2021/12/03 07:23:55;;;;;;;6.77;2.80;;;;;;;-0.64;100.00;96290.16;5030887;28;20049;-59
2021/12/03 07:26:24;;;;;;;4.40;2.83;;;;;;;-0.69;100.00;96303.25;5030901;28;20095;-59
2021/12/03 07:28:51;;;;;;;8.60;4.53;;;;;;;-0.68;100.00;96301.50;5029927;28;20049;-59
2021/12/03 07:31:18;;;;;;;6.83;3.53;;;;;;;-0.70;100.00;96291.28;5030119;28;20042;-59
2021/12/03 07:33:47;;;;;;;6.20;3.53;;;;;;;-0.67;100.00;96290.28;5029889;28;20749;-60
2021/12/03 07:36:13;;;;;;;7.03;4.77;;;;;;;-0.70;100.00;96311.03;5029300;28;20045;-58
2021/12/03 07:38:40;;;;;;;8.70;5.37;;;;;;;-0.65;100.00;96315.09;5030292;28;20060;-60
2021/12/03 07:41:07;;;;;;;8.60;5.60;;;;;;;-0.63;100.00;96322.75;5028593;28;20037;-69
2021/12/03 07:43:34;;;;;;;5.30;3.23;;;;;;;-0.71;100.00;96330.00;5028436;28;20426;-70
2021/12/03 07:46:02;;;;;;;7.07;2.80;;;;;;;-0.76;100.00;96335.38;5009859;28;20049;-70
2021/12/03 07:48:29;;;;;;;7.63;3.10;;;;;;;-0.83;100.00;96323.63;5028273;28;20124;-70
2021/12/03 07:50:57;;;;;;;6.60;3.53;;;;;;;-0.74;100.00;96330.16;5027807;28;20049;-69
2021/12/03 07:53:25;;;;;;;6.80;3.33;;;;;;;-0.73;100.00;96330.06;5027680;28;20049;-67
2021/12/03 07:55:53;;;;;;;8.03;4.53;;;;;;;-0.66;100.00;96333.22;5027576;28;20099;-69
2021/12/03 07:58:20;;;;;;;7.17;3.40;;;;;;;-0.65;100.00;96346.03;5027035;28;20503;-68
2021/12/03 08:00:49;;;;;;;9.47;3.67;;;;;;;-0.60;100.00;96343.28;5028962;28;20410;-69
2021/12/03 08:03:16;;;;;;;7.40;4.20;;;;;;;-0.54;100.00;96341.25;5011334;28;20061;-68
2021/12/03 08:05:43;;;;;;;9.90;4.80;;;;;;;-0.48;100.00;96346.13;5029018;28;20050;-68
2021/12/03 08:08:12;;;;;;;13.23;6.20;;;;;;;-0.41;100.00;96344.13;5028385;28;20433;-69
2021/12/03 08:10:40;;;;;;;10.90;4.40;;;;;;;-0.47;100.00;96357.31;5011395;28;20042;-70
2021/12/03 08:13:07;;;;;;;10.73;5.20;;;;;;;-0.41;100.00;96355.28;5028313;28;20402;-71
2021/12/03 08:15:37;;;;;;;11.47;6.10;;;;;;;-0.34;100.00;96367.00;5027348;28;20042;-69
2021/12/03 08:18:05;;;;;;;14.57;6.43;;;;;;;-0.38;100.00;96365.47;5010327;28;20045;-68
2021/12/03 08:20:32;;;;;;;18.57;8.53;;;;;;;-0.27;100.00;96357.22;5026337;28;20048;-68
2021/12/03 08:23:00;;;;;;;25.23;9.67;;;;;;;-0.20;100.00;96362.06;5028517;28;20037;-68
2021/12/03 08:25:29;;;;;;;18.07;8.93;;;;;;;-0.13;100.00;96363.44;5028345;28;20057;-68
2021/12/03 08:27:57;;;;;;;24.33;10.13;;;;;;;-0.22;100.00;96371.59;5029669;28;20259;-68
2021/12/03 08:30:26;;;;;;;22.10;10.23;;;;;;;-0.05;100.00;96382.00;5006913;28;20076;-67
2021/12/03 08:32:54;;;;;;;19.30;8.33;;;;;;;-0.03;100.00;96385.34;5026977;28;20076;-68
2021/12/03 08:35:21;;;;;;;17.47;8.03;;;;;;;0.01;100.00;96380.88;5027083;28;20828;-69
2021/12/03 08:37:49;;;;;;;15.10;7.37;;;;;;;-0.16;100.00;96386.81;5026773;28;20104;-66
2021/12/03 08:40:17;;;;;;;17.20;8.10;;;;;;;-0.02;100.00;96401.69;5027413;28;20065;-68
2021/12/03 08:42:46;;;;;;;16.17;7.90;;;;;;;0.03;100.00;96400.56;5027141;28;20049;-68
2021/12/03 08:45:15;;;;;;;16.43;8.87;;;;;;;-0.02;100.00;96401.69;5026509;28;20064;-65
2021/12/03 08:47:44;;;;;;;21.13;9.23;;;;;;;-0.04;100.00;96403.47;5026219;28;20053;-66
2021/12/03 08:50:14;;;;;;;20.73;9.90;;;;;;;-0.04;100.00;96411.22;5026061;28;20053;-66
2021/12/03 08:53:04;;;;;;;21.13;10.83;;;;;;;-0.11;100.00;96413.25;5024459;28;20044;-66
2021/12/03 08:55:30;;;;;;;22.30;10.37;;;;;;;0.02;100.00;96423.88;5025849;28;20042;-65
2021/12/03 08:57:59;;;;;;;19.97;10.40;;;;;;;0.04;100.00;96420.28;5012164;28;20529;-65
2021/12/03 09:00:26;;;;;;;16.60;9.40;;;;;;;-0.16;100.00;96435.88;5029571;28;20117;-66
2021/12/03 09:02:54;;;;;;;14.50;8.00;;;;;;;-0.09;100.00;96434.66;5026083;28;20483;-64
2021/12/03 09:05:21;;;;;;;20.63;8.53;;;;;;;-0.14;100.00;96430.63;5029423;28;20061;-64
2021/12/03 09:07:48;;;;;;;20.20;9.33;;;;;;;-0.21;100.00;96424.06;5033804;28;20052;-64
2021/12/03 09:10:16;;;;;;;17.27;7.33;;;;;;;-0.21;100.00;96424.88;5012208;28;20085;-65
2021/12/03 09:12:43;;;;;;;13.60;7.67;;;;;;;-0.29;100.00;96426.13;5027450;28;20053;-64
2021/12/03 09:15:14;;;;;;;14.13;8.03;;;;;;;-0.32;100.00;96432.28;5031144;28;20049;-66
2021/12/03 09:17:53;;;;;;;12.40;7.00;;;;;;;-0.25;100.00;96432.84;5030897;28;20073;-70
2021/12/03 09:20:30;;;;;;;16.07;7.67;;;;;;;-0.19;100.00;96428.25;5027972;28;20081;-63
2021/12/03 09:23:01;;;;;;;15.13;8.47;;;;;;;0.01;100.00;96443.66;5030710;28;20771;-64
2021/12/03 09:25:33;;;;;;;11.47;7.30;;;;;;;-0.05;100.00;96435.38;5029826;28;20469;-66
2021/12/03 09:28:03;;;;;;;12.57;7.00;;;;;;;-0.05;100.00;96441.38;5030739;28;20148;-63
2021/12/03 09:30:36;;;;;;;13.57;6.50;;;;;;;-0.17;100.00;96431.59;5028119;28;20081;-66
2021/12/03 09:33:05;;;;;;;14.35;8.18;;;;;;;-0.05;100.00;96431.06;5030323;28;20095;-63
2021/12/03 09:35:34;;;;;;;18.13;7.20;;;;;;;0.01;100.00;96419.63;5030219;28;20073;-63
2021/12/03 09:38:01;;;;;;;18.10;7.67;;;;;;;-0.07;100.00;96426.84;5029696;28;20053;-63
2021/12/03 09:40:31;;;;;;;18.50;7.70;;;;;;;-0.09;100.00;96426.91;5028030;28;20136;-64
2021/12/03 09:42:58;;;;;;;14.47;7.07;;;;;;;-0.02;100.00;96428.31;5030019;28;20042;-63
2021/12/03 09:45:26;;;;;;;13.40;7.30;;;;;;;-0.13;100.00;96433.13;5031343;28;20494;-63
2021/12/03 09:47:55;;;;;;;23.13;9.10;;;;;;;0.03;100.00;96439.28;5031208;28;20490;-63
2021/12/03 09:50:22;;;;;;;17.37;8.70;;;;;;;-0.06;100.00;96439.69;5030930;28;20057;-64
2021/12/03 09:53:04;;;;;;;12.30;6.67;;;;;;;-0.13;100.00;96437.47;5031098;28;20095;-63
2021/12/03 09:55:32;;;;;;;12.10;6.33;;;;;;;-0.17;100.00;96439.31;5030262;28;20053;-65
2021/12/03 09:58:09;;;;;;;14.83;9.00;;;;;;;-0.01;100.00;96448.09;5030339;28;20076;-65
2021/12/03 10:00:39;;;;;;;12.10;6.80;;;;;;;-0.11;100.00;96451.97;5030164;28;20048;-66
2021/12/03 10:03:23;;;;;;;14.17;8.37;;;;;;;0.15;100.00;96454.22;5031220;28;20061;-65
2021/12/03 10:20:09;;;;;;;12.40;6.47;;;;;;;-0.12;100.00;96470.09;5030292;28;20049;-63
2021/12/03 10:23:14;;;;;;;13.97;6.90;;;;;;;0.03;100.00;96477.16;5029691;28;20045;-65
2021/12/03 10:28:55;;;;;;;13.93;7.53;;;;;;;0.03;100.00;96475.44;5030333;28;20129;-64
2021/12/03 10:34:39;;;;;;;25.60;9.10;;;;;;;-0.05;100.00;96493.00;5029670;28;20053;-63
2021/12/03 10:40:01;;;;;;;11.67;6.37;;;;;;;-0.08;100.00;96497.47;5011574;28;20046;-65
2021/12/03 10:42:40;;;;;;;16.87;6.47;;;;;;;-0.22;100.00;96510.97;5027351;28;20064;-65
2021/12/03 10:45:29;;;;;;;15.87;7.30;;;;;;;-0.33;100.00;96495.13;5029239;28;20041;-64
2021/12/03 10:50:50;;;;;;;15.93;7.00;;;;;;;-0.40;100.00;96506.59;5027265;28;20041;-65
2021/12/03 10:53:27;;;;;;;10.20;6.73;;;;;;;-0.39;100.00;96507.44;5026970;28;20057;-64
2021/12/03 11:02:03;;;;;;;14.03;6.17;;;;;;;-0.26;100.00;96509.44;5026620;28;20053;-64
2021/12/03 11:30:16;;;;;;;14.50;6.87;;;;;;;-0.08;100.00;96516.38;5026609;28;20045;-63
2021/12/03 11:36:10;;;;;;;15.57;7.60;;;;;;;-0.32;100.00;96540.66;5028266;28;20044;-65
2021/12/03 11:39:10;;;;;;;14.70;6.47;;;;;;;-0.29;100.00;96550.84;5027232;28;20078;-66
2021/12/03 11:59:28;;;;;;;18.10;7.57;;;;;;;-0.45;100.00;96565.31;4929186;29;20569;-65
2021/12/03 13:23:05;;;;;;;12.33;5.63;;;;;;;-0.91;100.00;96685.84;4971885;28;20054;-69
2021/12/03 13:56:59;;;;;;;12.80;6.27;;;;;;;-1.12;100.00;96730.44;5029291;28;20049;-67
2021/12/03 14:05:24;;;;;;;13.67;6.70;;;;;;;-1.04;100.00;96749.91;5030333;28;20052;-67
2021/12/03 14:42:20;;;;;;;13.40;6.73;;;;;;;-1.22;100.00;96783.19;5026885;28;20053;-68
2021/12/03 14:44:57;;;;;;;17.43;7.13;;;;;;;-1.10;100.00;96793.06;5026812;28;20073;-68
2021/12/03 14:47:57;;;;;;;16.63;6.73;;;;;;;-1.12;100.00;96807.75;5027420;28;20153;-66
2021/12/03 14:53:35;;;;;;;;;;;;;;;-1.12;100.00;96824.09;5016699;28;20046;-66
2021/12/03 14:56:04;;;;;;;11.30;5.20;;;;;;;-1.29;100.00;96813.50;5027089;28;20362;-67
2021/12/03 14:58:38;;;;;;;10.43;5.57;;;;;;;-1.24;100.00;96821.09;5027028;28;20163;-62
2021/12/03 15:01:14;;;;;;;15.03;7.80;;;;;;;-1.15;100.00;96829.34;5012063;28;20050;-62
2021/12/03 15:03:55;;;;;;;10.93;5.80;;;;;;;-1.25;100.00;96832.25;5030534;28;20406;-60
2021/12/03 15:06:30;;;;;;;14.77;5.77;;;;;;;-1.27;100.00;96834.88;5027563;28;20061;-61
2021/12/03 15:09:00;;;;;;;11.50;5.13;;;;;;;-1.31;100.00;96832.50;5031416;28;20054;-61
2021/12/03 15:11:57;;;;;;;9.60;5.10;;;;;;;-1.38;100.00;96831.00;5030064;28;20055;-61
2021/12/03 15:23:06;;;;;;;7.90;5.03;;;;;;;-1.44;100.00;96862.13;5027846;28;20537;-66
2021/12/03 15:25:46;;;;;;;;;;;;;;;-1.39;100.00;96865.41;5011148;28;20069;-66
2021/12/03 15:28:42;;;;;;;19.03;8.93;;;;;;;-1.39;100.00;96870.56;5028224;28;20321;-66
2021/12/03 15:34:05;;;;;;;17.00;8.40;;;;;;;-1.42;100.00;96883.53;5012708;28;20525;-66
2021/12/03 15:36:47;;;;;;;13.80;7.55;;;;;;;-1.14;100.00;96879.13;5029414;28;20045;-68
2021/12/03 15:39:44;;;;;;;12.90;6.00;;;;;;;-1.32;100.00;96885.75;5026405;28;20072;-67
2021/12/03 16:04:12;;;;;;;11.80;5.43;;;;;;;-1.79;100.00;96907.03;5027254;28;20041;-68